Latest Weather Observations for Oakey

IDQ60801

Issued at 4:02 am EST Sunday 7 February 2016 (issued every 30 minutes, with the page automatically refreshed every 10 minutes)

About weather observations | Map of weather stations | Latest weather observations for QLD | Other Formats
Station Details ID: 041359 Name: OAKEY AERO Lat: -27.40 Lon: 151.74 Height: 405.69 m
Data from the previous 72 hours. | See also: Recent months at Oakey
Date/Time
EST
Temp
°C
App
Temp
°C
Dew
Point
Rel
Hum
%
Delta-T
°C
Wind Press
QNH
hPa
Press
MSL
hPa
Rain
since 9 am
mm
Dir
 
Spd
km/h
Gust
km/h
Spd
kts
Gust
kts
07/04:00am 19.3 19.3 18.1 93 0.8 E 15 19 8 10 1013.2 1010.9 2.0
07/03:36am 19.2 19.6 18.2 94 0.6 ESE 13 19 7 10 1013.2 1010.9 2.0
07/03:30am 19.3 19.4 18.3 94 0.6 ESE 15 20 8 11 1013.2 1010.9 2.0
07/03:22am 19.3 18.9 18.1 93 0.8 SE 17 22 9 12 1013.1 1010.8 2.0
07/03:00am 19.5 20.0 18.3 93 0.8 SE 13 17 7 9 1013.7 1011.4 2.0
07/02:36am 19.5 20.4 18.5 94 0.6 SSE 11 17 6 9 1013.5 1011.2 2.0
07/02:30am 19.5 20.8 18.5 94 0.6 SSE 9 13 5 7 1013.6 1011.3 2.0
07/02:25am 19.6 20.5 18.4 93 0.8 SE 11 15 6 8 1013.6 1011.3 2.0
07/02:00am 19.6 19.3 18.3 92 0.8 SE 17 20 9 11 1013.4 1011.1 2.0
07/01:30am 19.6 20.1 18.4 93 0.8 ESE 13 19 7 10 1013.6 1011.3 2.0
07/01:16am 19.6 20.2 18.6 94 0.6 ESE 13 17 7 9 1013.7 1011.4 2.0
07/01:08am 19.6 20.2 18.6 94 0.6 SE 13 17 7 9 1013.7 1011.4 2.0
07/01:00am 19.6 20.2 18.6 94 0.6 SE 13 19 7 10 1013.8 1011.5 2.0
07/12:43am 19.7 19.1 18.4 92 0.8 SE 19 24 10 13 1013.7 1011.4 1.8
07/12:30am 20.0 20.4 18.1 89 1.2 SE 13 20 7 11 1013.9 1011.6 1.8
07/12:16am 20.1 20.7 18.6 91 1.0 SE 13 19 7 10 1013.8 1011.5 1.8
07/12:14am 20.1 20.3 18.6 91 1.0 SE 15 20 8 11 1013.8 1011.5 1.8
07/12:00am 20.2 19.9 18.3 89 1.2 ESE 17 20 9 11 1013.9 1011.6 1.8
 
Date/Time
EST
Temp
°C
App
Temp
°C
Dew
Point
Rel
Hum
%
Delta-T
°C
Wind Press
QNH
hPa
Press
MSL
hPa
Rain
since 9 am
mm
Dir
 
Spd
km/h
Gust
km/h
Spd
kts
Gust
kts
06/11:30pm 20.1 19.2 18.2 89 1.2 ESE 20 26 11 14 1013.8 1011.5 1.8
06/11:00pm 20.2 19.0 18.3 89 1.2 ESE 22 32 12 17 1014.0 1011.7 1.8
06/10:50pm 20.2 19.0 18.3 89 1.2 ESE 22 30 12 16 1014.0 1011.7 1.8
06/10:30pm 20.3 19.5 18.4 89 1.2 E 20 28 11 15 1014.0 1011.7 1.8
06/10:18pm 20.3 18.7 18.4 89 1.2 ENE 24 32 13 17 1013.9 1011.6 1.8
06/10:00pm 20.3 18.6 18.2 88 1.3 ENE 24 33 13 18 1014.1 1011.8 1.8
06/09:30pm 20.4 19.6 18.5 89 1.2 E 20 24 11 13 1014.3 1012.1 1.6
06/09:00pm 20.5 18.9 18.4 88 1.3 E 24 33 13 18 1014.2 1011.9 1.2
06/08:30pm 21.0 19.7 18.2 84 1.8 E 22 33 12 18 1014.1 1011.8 0.6
06/08:00pm 21.0 20.4 18.8 87 1.4 E 20 28 11 15 1013.5 1011.2 0.6
06/07:30pm 20.9 19.9 18.8 88 1.3 E 22 30 12 16 1013.0 1010.7 0.6
06/07:00pm 21.4 20.0 18.8 85 1.7 E 24 32 13 17 1012.4 1010.2 0.2
06/06:30pm 21.5 19.8 18.9 85 1.7 E 26 33 14 18 1012.3 1010.1 0.2
06/06:00pm 21.6 20.6 18.8 84 1.8 E 22 30 12 16 1012.0 1009.7 0.2
06/05:30pm 21.5 20.2 19.1 86 1.5 E 24 30 13 16 1011.5 1009.2 0.2
06/05:00pm 21.7 21.3 19.3 86 1.5 E 20 26 11 14 1011.4 1009.1 0.2
06/04:54pm 21.7 21.3 19.4 87 1.5 E 20 26 11 14 1011.3 1009.0 0.2
06/04:42pm 21.5 19.5 19.2 87 1.5 E 28 39 15 21 1011.1 1008.8 0.2
06/04:30pm 23.2 21.8 18.9 77 2.8 ENE 24 37 13 20 1010.9 1008.6 0.2
06/04:00pm 23.4 22.9 19.1 77 2.8 E 20 28 11 15 1011.0 1008.7 0.2
06/03:30pm 22.7 20.8 19.3 81 2.2 ESE 28 35 15 19 1011.1 1008.8 0.2
06/03:16pm 22.8 22.6 19.8 83 2.0 ESE 20 32 11 17 1011.1 1008.8 0.2
06/03:00pm 22.0 20.3 19.0 83 1.9 SE 26 33 14 18 1011.1 1008.8 0.0
06/02:58pm 22.1 20.4 18.9 82 2.1 SE 26 33 14 18 1011.1 1008.8 0.0
06/02:35pm 23.7 23.0 19.4 77 2.8 SE 22 30 12 16 1011.2 1008.9 0.0
06/02:30pm 23.4 23.4 20.2 82 2.1 SE 20 28 11 15 1011.1 1008.8 0.0
06/02:22pm 22.6 20.0 19.6 83 1.9 SE 32 43 17 23 1011.2 1008.9 0.0
06/02:00pm 23.3 22.0 19.0 77 2.8 NE 24 35 13 19 1011.4 1009.1 0.0
06/01:30pm 25.8 25.3 18.7 65 4.6 E 19 24 10 13 1011.1 1008.8 0.0
06/01:00pm 25.3 22.9 18.2 64 4.6 E 28 37 15 20 1011.3 1009.0 0.0
06/12:30pm 25.5 23.9 18.4 65 4.6 E 24 33 13 18 1011.4 1009.1 0.0
06/12:00pm 25.1 21.7 18.1 65 4.5 ESE 33 43 18 23 1011.9 1009.6 0.0
06/11:30am 26.1 23.5 17.7 60 5.4 ESE 28 39 15 21 1012.0 1009.7 0.0
06/11:00am 25.4 22.1 18.3 65 4.6 ESE 33 43 18 23 1012.3 1010.1 0.0
06/10:30am 25.0 21.9 18.4 66 4.2 ESE 32 43 17 23 1012.5 1010.3 0.0
06/10:00am 24.4 21.5 17.9 67 4.1 SE 30 39 16 21 1012.8 1010.6 0.0
06/09:30am 23.8 20.0 18.2 71 3.6 ESE 35 46 19 25 1012.7 1010.5 0.0
06/09:00am 22.7 20.7 17.4 72 3.3 ESE 24 30 13 16 1013.0 1010.7 2.6
06/08:30am 22.3 20.3 17.4 74 3.1 ESE 24 32 13 17 1012.6 1010.4 2.6
06/08:00am 22.0 19.9 17.2 74 3.0 ESE 24 30 13 16 1012.8 1010.6 2.6
06/07:30am 21.5 19.2 17.5 78 2.5 E 26 32 14 17 1012.6 1010.4 2.6
06/07:00am 21.1 19.3 16.9 77 2.6 ESE 22 32 12 17 1012.2 1010.0 2.6
06/06:30am 20.9 19.1 16.9 78 2.5 E 22 35 12 19 1011.8 1009.5 2.6
06/06:00am 20.7 18.4 16.7 78 2.5 E 24 32 13 17 1011.4 1009.1 2.6
06/05:30am 20.6 19.0 16.6 78 2.5 ESE 20 30 11 16 1011.1 1008.8 2.6
06/05:00am 20.6 18.2 16.4 77 2.6 ESE 24 39 13 21 1010.5 1008.2 2.6
06/04:30am 20.5 19.0 16.3 77 2.6 ESE 19 24 10 13 1010.2 1008.0 2.6
06/04:00am 20.5 18.9 16.1 76 2.7 ESE 19 30 10 16 1010.2 1008.0 2.6
06/03:30am 20.4 18.9 16.2 77 2.6 ESE 19 24 10 13 1010.0 1007.8 2.6
06/03:00am 20.4 18.8 16.0 76 2.7 E 19 28 10 15 1009.9 1007.7 2.6
06/02:30am 20.5 18.3 15.9 75 2.8 ESE 22 30 12 16 1010.2 1008.0 2.6
06/02:00am 20.4 19.1 15.8 75 2.8 ESE 17 22 9 12 1010.2 1008.0 2.6
06/01:30am 20.7 18.9 15.9 74 2.9 ESE 20 30 11 16 1010.4 1008.1 2.6
06/01:00am 20.5 18.9 16.1 76 2.7 ESE 19 28 10 15 1010.8 1008.5 2.6
06/12:30am 20.5 18.9 16.1 76 2.7 SE 19 24 10 13 1011.3 1009.0 2.6
06/12:00am 20.9 18.0 16.1 74 2.9 ESE 26 35 14 19 1011.4 1009.1 2.6
 
Date/Time
EST
Temp
°C
App
Temp
°C
Dew
Point
Rel
Hum
%
Delta-T
°C
Wind Press
QNH
hPa
Press
MSL
hPa
Rain
since 9 am
mm
Dir
 
Spd
km/h
Gust
km/h
Spd
kts
Gust
kts
05/11:30pm 20.9 16.9 16.1 74 2.9 ESE 32 43 17 23 1011.4 1009.1 2.6
05/11:00pm 21.1 17.4 16.1 73 3.1 ESE 30 37 16 20 1011.8 1009.5 2.6
05/10:30pm 21.2 17.9 16.0 72 3.2 ESE 28 39 15 21 1011.9 1009.6 2.6
05/10:00pm 21.4 17.7 16.1 72 3.2 E 30 41 16 22 1012.1 1009.9 2.6
05/09:30pm 21.7 18.5 16.4 72 3.3 E 28 35 15 19 1012.3 1010.1 2.6
05/09:00pm 22.1 19.5 16.8 72 3.3 E 26 35 14 19 1012.0 1009.7 2.6
05/08:30pm 22.2 18.9 17.1 73 3.2 E 30 39 16 21 1011.8 1009.5 2.6
05/08:00pm 22.8 19.2 17.3 71 3.5 E 32 43 17 23 1011.4 1009.1 2.6
05/07:30pm 22.9 20.5 17.4 71 3.5 ESE 26 37 14 20 1011.1 1008.8 2.6
05/07:00pm 23.1 21.3 17.8 72 3.4 ESE 24 32 13 17 1010.5 1008.2 2.6
05/06:30pm 23.3 21.8 17.7 71 3.5 ESE 22 28 12 15 1010.1 1007.9 2.6
05/06:00pm 24.0 23.1 18.2 70 3.7 ESE 20 26 11 14 1010.0 1007.8 2.6
05/05:30pm 24.3 21.7 17.8 67 4.1 ESE 28 39 15 21 1009.6 1007.3 2.6
05/05:00pm 24.5 22.0 18.0 67 4.2 ESE 28 35 15 19 1009.5 1007.2 2.6
05/04:30pm 24.7 21.4 17.9 66 4.3 E 32 39 17 21 1009.4 1007.1 2.6
05/04:00pm 24.8 21.7 18.5 68 4.1 E 32 41 17 22 1009.3 1007.0 2.6
05/03:30pm 25.0 22.6 19.1 70 3.8 ESE 30 37 16 20 1009.3 1007.0 2.6
05/03:00pm 24.6 23.0 19.2 72 3.5 E 26 37 14 20 1009.7 1007.4 2.6
05/02:30pm 24.1 22.9 18.5 71 3.6 ESE 22 30 12 16 1009.9 1007.7 2.6
05/02:00pm 23.6 22.4 19.3 77 2.8 ENE 24 32 13 17 1010.1 1007.9 2.6
05/01:30pm 23.2 22.8 19.4 79 2.5 E 20 30 11 16 1010.7 1008.4 2.6
05/01:00pm 22.5 23.0 20.0 86 1.6 NE 17 20 9 11 1010.9 1008.6 2.6
05/12:30pm 22.1 22.2 19.1 83 1.9 ENE 17 22 9 12 1011.1 1008.8 1.6
05/12:00pm 21.8 22.1 19.5 87 1.5 E 17 20 9 11 1011.4 1009.1 1.6
05/11:43am 21.5 21.6 19.2 87 1.5 ESE 17 20 9 11 1011.6 1009.3 1.6
05/11:30am 21.5 21.7 19.4 88 1.4 SE 17 22 9 12 1011.7 1009.4 1.4
05/11:16am 21.5 20.8 18.3 82 2.0 SE 19 24 10 13 1011.8 1009.5 0.6
05/11:00am 22.1 20.6 17.7 76 2.8 SE 22 28 12 15 1011.7 1009.4 0.4
05/10:30am 22.6 21.8 17.9 75 3.0 SE 19 22 10 12 1011.6 1009.3 0.4
05/10:00am 22.1 20.9 18.3 79 2.4 ESE 22 28 12 15 1011.3 1009.0 0.4
05/09:30am 21.3 20.0 18.1 82 2.0 E 22 26 12 14 1011.0 1008.7 0.4
05/09:00am 21.0 20.1 18.2 84 1.8 E 20 28 11 15 1010.9 1008.6 3.6
05/08:30am 21.4 20.6 18.0 81 2.1 ENE 19 24 10 13 1010.6 1008.3 3.4
05/08:00am 21.1 20.9 18.5 85 1.7 E 17 20 9 11 1010.6 1008.3 3.4
05/07:30am 20.6 19.9 18.2 86 1.5 E 19 24 10 13 1010.4 1008.1 3.4
05/07:00am 20.3 19.3 17.9 86 1.5 E 20 24 11 13 1009.9 1007.7 3.2
05/06:30am 20.4 20.2 17.6 84 1.8 ENE 15 17 8 9 1009.7 1007.4 3.0
05/06:00am 20.2 20.5 17.8 86 1.5 E 13 17 7 9 1009.3 1007.0 3.0
05/05:30am 20.0 19.8 17.6 86 1.5 E 15 20 8 11 1008.7 1006.4 3.0
05/05:00am 19.8 20.4 17.6 87 1.4 ESE 11 13 6 7 1008.4 1006.1 3.0
05/04:30am 19.9 20.0 17.5 86 1.5 E 13 17 7 9 1008.1 1005.8 3.0
05/04:00am 19.9 19.3 17.5 86 1.5 ESE 17 24 9 13 1007.9 1005.6 3.0
05/03:30am 20.2 19.1 17.4 84 1.7 E 19 24 10 13 1008.0 1005.7 3.0
05/03:00am 20.4 19.2 17.4 83 1.9 E 20 26 11 14 1007.9 1005.6 3.0
05/02:30am 20.4 20.1 17.4 83 1.9 E 15 22 8 12 1007.9 1005.6 3.0
05/02:00am 20.3 19.1 17.5 84 1.8 E 20 28 11 15 1008.1 1005.8 3.0
05/01:30am 20.3 18.9 17.9 86 1.5 E 22 30 12 16 1008.3 1006.0 3.0
05/01:00am 20.3 18.8 17.7 85 1.6 E 22 28 12 15 1008.7 1006.4 3.0
05/12:30am 20.1 19.2 17.7 86 1.5 E 19 28 10 15 1009.0 1006.7 3.0
05/12:00am 19.9 19.4 17.7 87 1.4 E 17 24 9 13 1009.4 1007.1 2.8
 
Date/Time
EST
Temp
°C
App
Temp
°C
Dew
Point
Rel
Hum
%
Delta-T
°C
Wind Press
QNH
hPa
Press
MSL
hPa
Rain
since 9 am
mm
Dir
 
Spd
km/h
Gust
km/h
Spd
kts
Gust
kts
04/11:30pm 19.4 19.2 17.5 89 1.2 NE 15 19 8 10 1009.5 1007.2 2.8
04/11:00pm 19.6 19.2 17.2 86 1.5 ENE 15 19 8 10 1010.0 1007.8 2.8
04/10:30pm 19.5 18.4 17.3 87 1.4 ENE 19 24 10 13 1009.9 1007.7 2.8
04/10:00pm 19.3 17.9 16.9 86 1.5 E 20 28 11 15 1010.2 1008.0 2.8
04/09:30pm 19.2 17.3 16.8 86 1.5 ESE 22 32 12 17 1010.4 1008.1 2.8
04/09:00pm 19.3 16.7 16.9 86 1.5 ENE 26 32 14 17 1010.4 1008.1 2.8
04/08:30pm 19.1 18.3 17.9 93 0.8 NE 19 22 10 12 1010.0 1007.8 2.6
04/08:00pm 19.1 17.9 17.4 90 1.1 ENE 20 28 11 15 1010.0 1007.8 2.0
04/07:30pm 19.8 18.8 17.9 89 1.2 ESE 20 28 11 15 1009.8 1007.5 1.0
04/07:00pm 20.1 17.5 17.7 86 1.5 E 28 41 15 22 1009.3 1007.0 0.8
04/06:30pm 20.5 18.2 18.4 88 1.3 ENE 28 37 15 20 1008.5 1006.2 0.8
04/06:00pm 21.1 19.0 18.9 87 1.4 E 28 37 15 20 1008.0 1005.7 0.4
04/05:30pm 21.6 18.9 19.3 87 1.5 E 32 43 17 23 1007.2 1004.9 0.2
04/05:00pm 21.8 18.9 19.2 85 1.7 NE 33 44 18 24 1006.5 1004.2 0.2
04/04:30pm 22.6 19.5 18.8 79 2.4 ENE 33 44 18 24 1006.2 1003.9 0.0
04/04:00pm 23.4 18.2 18.3 73 3.3 ENE 43 57 23 31 1005.5 1003.1 0.0
04/03:30pm 23.9 20.2 20.0 79 2.6 ENE 39 52 21 28 1005.6 1003.3 0.0
04/03:00pm 24.5 21.9 20.6 79 2.6 ENE 35 48 19 26 1005.6 1003.3 0.0
04/02:30pm 24.6 23.0 21.5 83 2.1 ENE 32 41 17 22 1006.0 1003.7 0.0
04/02:00pm 26.7 25.2 21.7 74 3.4 NE 32 39 17 21 1006.3 1004.0 0.0
04/01:30pm 26.8 25.7 21.8 74 3.4 ENE 30 37 16 20 1006.7 1004.4 0.0
04/01:00pm 27.2 26.8 22.4 75 3.3 ENE 28 37 15 20 1006.8 1004.5 0.0
04/12:30pm 27.2 26.6 22.6 76 3.2 ESE 30 37 16 20 1007.2 1004.9 0.0
04/12:00pm 26.6 26.5 22.2 77 3.0 ENE 26 32 14 17 1007.4 1005.1 0.0
04/11:30am 26.8 26.2 22.0 75 3.3 NE 28 33 15 18 1007.5 1005.2 0.0
04/11:00am 27.4 27.5 22.6 75 3.3 NE 26 32 14 17 1007.2 1004.9 0.0
04/10:30am 27.6 29.2 22.8 75 3.3 ENE 19 24 10 13 1007.0 1004.7 0.0
04/10:00am 27.4 29.6 22.6 75 3.3 NE 15 20 8 11 1006.9 1004.6 0.0
04/09:30am 26.6 29.2 23.3 82 2.3 ENE 15 19 8 10 1006.9 1004.6 0.0
04/09:00am 25.3 28.3 22.0 82 2.2 E 9 15 5 8 1007.1 1004.8 10.4
04/08:30am 24.8 27.9 22.1 85 1.8 NNE 9 13 5 7 1007.0 1004.7 10.4
04/08:00am 24.8 28.9 22.3 86 1.7 NNE 4 9 2 5 1007.0 1004.7 10.4
04/07:30am 23.6 26.7 22.2 92 0.9 N 9 11 5 6 1007.0 1004.7 10.4
04/07:00am 23.5 26.8 22.5 94 0.7 N 9 11 5 6 1006.9 1004.6 10.4
04/06:30am 22.6 27.1 22.3 98 0.2 NW 2 9 1 5 1006.5 1004.2 10.4
04/06:23am 22.4 27.2 22.1 98 0.2 CALM 0 0 0 0 1006.5 1004.2 10.4
04/06:00am 22.0 26.6 21.7 98 0.2 CALM 0 6 0 3 1006.1 1003.8 10.4
04/05:54am 21.8 25.5 21.5 98 0.2 ENE 4 7 2 4 1006.1 1003.8 10.4
04/05:30am 21.6 26.0 21.3 98 0.2 CALM 0 0 0 0 1005.8 1003.5 10.4
04/05:00am 21.5 24.7 21.2 98 0.2 ENE 6 9 3 5 1005.4 1003.0 10.4
04/04:47am 21.4 24.2 20.9 97 0.3 NE 7 9 4 5 1005.2 1002.8 10.4
04/04:30am 21.6 24.6 21.3 98 0.2 NE 7 9 4 5 1004.8 1002.5 10.4

Other Formats:

Comma delimited format used in spreadsheet applications
http://www.bom.gov.au/fwo/IDQ60801/IDQ60801.94552.axf

JavaScript Object Notation format (JSON) in row-major order
http://www.bom.gov.au/fwo/IDQ60801/IDQ60801.94552.json